sensor_id;sensor_type;location;lat;lon;timestamp;P1;durP1;ratioP1;P2;durP2;ratioP2
15112;SDS011;7657;50.140;7.076;2023-07-20T00:00:05;5.05;;;2.30;;
15112;SDS011;7657;50.140;7.076;2023-07-20T00:02:33;5.25;;;2.10;;
15112;SDS011;7657;50.140;7.076;2023-07-20T00:05:00;4.38;;;2.13;;
15112;SDS011;7657;50.140;7.076;2023-07-20T00:07:27;3.50;;;2.00;;
15112;SDS011;7657;50.140;7.076;2023-07-20T00:09:56;2.72;;;1.83;;
15112;SDS011;7657;50.140;7.076;2023-07-20T00:12:23;4.07;;;2.10;;
15112;SDS011;7657;50.140;7.076;2023-07-20T00:14:50;5.55;;;2.03;;
15112;SDS011;7657;50.140;7.076;2023-07-20T00:17:18;3.30;;;2.17;;
15112;SDS011;7657;50.140;7.076;2023-07-20T00:19:45;3.95;;;1.92;;
15112;SDS011;7657;50.140;7.076;2023-07-20T00:22:12;3.63;;;2.35;;
15112;SDS011;7657;50.140;7.076;2023-07-20T00:24:39;5.05;;;2.22;;
15112;SDS011;7657;50.140;7.076;2023-07-20T00:27:07;3.85;;;2.08;;
15112;SDS011;7657;50.140;7.076;2023-07-20T00:29:34;2.80;;;2.13;;
15112;SDS011;7657;50.140;7.076;2023-07-20T00:32:01;5.45;;;2.33;;
15112;SDS011;7657;50.140;7.076;2023-07-20T00:34:30;4.45;;;1.95;;
15112;SDS011;7657;50.140;7.076;2023-07-20T00:36:57;5.00;;;2.20;;
15112;SDS011;7657;50.140;7.076;2023-07-20T00:39:24;3.65;;;2.13;;
15112;SDS011;7657;50.140;7.076;2023-07-20T00:41:50;2.55;;;2.30;;
15112;SDS011;7657;50.140;7.076;2023-07-20T00:44:19;3.78;;;2.17;;
15112;SDS011;7657;50.140;7.076;2023-07-20T00:46:45;2.92;;;2.20;;
15112;SDS011;7657;50.140;7.076;2023-07-20T00:49:13;3.60;;;2.17;;
15112;SDS011;7657;50.140;7.076;2023-07-20T00:51:40;2.83;;;2.00;;
15112;SDS011;7657;50.140;7.076;2023-07-20T00:54:07;2.45;;;2.03;;
15112;SDS011;7657;50.140;7.076;2023-07-20T00:56:34;3.88;;;2.35;;
15112;SDS011;7657;50.140;7.076;2023-07-20T00:59:02;3.15;;;2.50;;
15112;SDS011;7657;50.140;7.076;2023-07-20T01:01:30;4.22;;;2.45;;
15112;SDS011;7657;50.140;7.076;2023-07-20T01:03:57;5.40;;;2.55;;
15112;SDS011;7657;50.140;7.076;2023-07-20T01:06:29;4.13;;;2.13;;
15112;SDS011;7657;50.140;7.076;2023-07-20T01:09:02;3.35;;;2.17;;
15112;SDS011;7657;50.140;7.076;2023-07-20T01:11:36;3.55;;;2.22;;
15112;SDS011;7657;50.140;7.076;2023-07-20T01:14:09;3.55;;;2.47;;
15112;SDS011;7657;50.140;7.076;2023-07-20T01:16:39;2.83;;;1.83;;
15112;SDS011;7657;50.140;7.076;2023-07-20T01:19:06;3.33;;;2.00;;
15112;SDS011;7657;50.140;7.076;2023-07-20T01:21:34;5.88;;;2.00;;
15112;SDS011;7657;50.140;7.076;2023-07-20T01:24:19;2.88;;;2.20;;
15112;SDS011;7657;50.140;7.076;2023-07-20T01:27:09;3.55;;;2.10;;
15112;SDS011;7657;50.140;7.076;2023-07-20T01:29:55;3.53;;;2.10;;
15112;SDS011;7657;50.140;7.076;2023-07-20T01:32:39;3.35;;;2.00;;
15112;SDS011;7657;50.140;7.076;2023-07-20T01:35:09;4.30;;;1.98;;
15112;SDS011;7657;50.140;7.076;2023-07-20T01:37:39;3.33;;;2.10;;
15112;SDS011;7657;50.140;7.076;2023-07-20T01:40:08;4.07;;;2.20;;
15112;SDS011;7657;50.140;7.076;2023-07-20T01:42:36;4.35;;;2.33;;
15112;SDS011;7657;50.140;7.076;2023-07-20T01:45:03;4.20;;;1.90;;
15112;SDS011;7657;50.140;7.076;2023-07-20T01:47:31;3.35;;;1.90;;
15112;SDS011;7657;50.140;7.076;2023-07-20T01:49:59;3.75;;;2.10;;
15112;SDS011;7657;50.140;7.076;2023-07-20T01:52:26;4.70;;;2.33;;
15112;SDS011;7657;50.140;7.076;2023-07-20T01:54:53;4.45;;;2.08;;
15112;SDS011;7657;50.140;7.076;2023-07-20T01:57:19;3.35;;;2.08;;
15112;SDS011;7657;50.140;7.076;2023-07-20T01:59:46;4.20;;;2.13;;
15112;SDS011;7657;50.140;7.076;2023-07-20T02:02:13;5.60;;;2.60;;
15112;SDS011;7657;50.140;7.076;2023-07-20T02:04:40;6.50;;;2.13;;
15112;SDS011;7657;50.140;7.076;2023-07-20T02:07:08;3.28;;;2.30;;
15112;SDS011;7657;50.140;7.076;2023-07-20T02:09:35;6.00;;;2.42;;
15112;SDS011;7657;50.140;7.076;2023-07-20T02:12:02;6.43;;;2.20;;
15112;SDS011;7657;50.140;7.076;2023-07-20T02:14:29;2.97;;;2.17;;
15112;SDS011;7657;50.140;7.076;2023-07-20T02:16:56;3.38;;;2.38;;
15112;SDS011;7657;50.140;7.076;2023-07-20T02:19:24;6.68;;;2.60;;
15112;SDS011;7657;50.140;7.076;2023-07-20T02:21:51;4.57;;;2.47;;
15112;SDS011;7657;50.140;7.076;2023-07-20T02:24:20;3.10;;;2.22;;
15112;SDS011;7657;50.140;7.076;2023-07-20T02:26:46;5.40;;;2.30;;
15112;SDS011;7657;50.140;7.076;2023-07-20T02:29:13;4.90;;;2.47;;
15112;SDS011;7657;50.140;7.076;2023-07-20T02:31:40;5.68;;;2.30;;
15112;SDS011;7657;50.140;7.076;2023-07-20T02:34:08;3.95;;;2.20;;
15112;SDS011;7657;50.140;7.076;2023-07-20T02:36:35;3.10;;;2.45;;
15112;SDS011;7657;50.140;7.076;2023-07-20T02:39:02;4.75;;;2.33;;
15112;SDS011;7657;50.140;7.076;2023-07-20T02:41:30;4.88;;;2.42;;
15112;SDS011;7657;50.140;7.076;2023-07-20T02:43:58;3.67;;;2.30;;
15112;SDS011;7657;50.140;7.076;2023-07-20T02:46:25;3.45;;;2.30;;
15112;SDS011;7657;50.140;7.076;2023-07-20T02:48:52;2.55;;;2.35;;
15112;SDS011;7657;50.140;7.076;2023-07-20T02:51:19;5.43;;;2.75;;
15112;SDS011;7657;50.140;7.076;2023-07-20T02:53:46;5.97;;;2.50;;
15112;SDS011;7657;50.140;7.076;2023-07-20T02:56:13;4.85;;;2.33;;
15112;SDS011;7657;50.140;7.076;2023-07-20T02:58:42;3.35;;;2.40;;
15112;SDS011;7657;50.140;7.076;2023-07-20T03:01:10;2.28;;;1.83;;
15112;SDS011;7657;50.140;7.076;2023-07-20T03:03:38;4.60;;;2.65;;
15112;SDS011;7657;50.140;7.076;2023-07-20T03:06:05;3.85;;;2.30;;
15112;SDS011;7657;50.140;7.076;2023-07-20T03:08:33;2.67;;;2.38;;
15112;SDS011;7657;50.140;7.076;2023-07-20T03:11:01;5.97;;;2.40;;
15112;SDS011;7657;50.140;7.076;2023-07-20T03:13:28;4.55;;;2.58;;
15112;SDS011;7657;50.140;7.076;2023-07-20T03:15:56;2.58;;;2.10;;
15112;SDS011;7657;50.140;7.076;2023-07-20T03:18:23;6.53;;;2.35;;
15112;SDS011;7657;50.140;7.076;2023-07-20T03:20:50;2.92;;;2.15;;
15112;SDS011;7657;50.140;7.076;2023-07-20T03:23:16;5.40;;;2.70;;
15112;SDS011;7657;50.140;7.076;2023-07-20T03:25:43;5.20;;;2.30;;
15112;SDS011;7657;50.140;7.076;2023-07-20T03:28:10;5.78;;;2.55;;
15112;SDS011;7657;50.140;7.076;2023-07-20T03:30:37;2.50;;;2.22;;
15112;SDS011;7657;50.140;7.076;2023-07-20T03:33:05;4.80;;;2.20;;
15112;SDS011;7657;50.140;7.076;2023-07-20T03:35:32;3.78;;;2.28;;
15112;SDS011;7657;50.140;7.076;2023-07-20T03:37:59;3.45;;;2.28;;
15112;SDS011;7657;50.140;7.076;2023-07-20T03:40:26;5.93;;;2.30;;
15112;SDS011;7657;50.140;7.076;2023-07-20T03:42:53;3.45;;;2.40;;
15112;SDS011;7657;50.140;7.076;2023-07-20T03:45:19;4.30;;;2.40;;
15112;SDS011;7657;50.140;7.076;2023-07-20T03:47:49;5.03;;;2.35;;
15112;SDS011;7657;50.140;7.076;2023-07-20T03:50:17;3.88;;;2.45;;
15112;SDS011;7657;50.140;7.076;2023-07-20T03:52:44;4.40;;;2.45;;
15112;SDS011;7657;50.140;7.076;2023-07-20T03:55:11;4.20;;;2.35;;
15112;SDS011;7657;50.140;7.076;2023-07-20T03:57:37;5.35;;;2.17;;
15112;SDS011;7657;50.140;7.076;2023-07-20T04:00:05;3.60;;;2.30;;
15112;SDS011;7657;50.140;7.076;2023-07-20T04:02:33;4.43;;;2.63;;
15112;SDS011;7657;50.140;7.076;2023-07-20T04:04:59;5.70;;;2.60;;
15112;SDS011;7657;50.140;7.076;2023-07-20T04:07:28;4.65;;;2.80;;
15112;SDS011;7657;50.140;7.076;2023-07-20T04:09:55;3.05;;;2.10;;
15112;SDS011;7657;50.140;7.076;2023-07-20T04:12:21;5.72;;;2.75;;
15112;SDS011;7657;50.140;7.076;2023-07-20T04:14:48;4.40;;;2.33;;
15112;SDS011;7657;50.140;7.076;2023-07-20T04:17:15;5.20;;;2.40;;
15112;SDS011;7657;50.140;7.076;2023-07-20T04:19:42;3.40;;;2.22;;
15112;SDS011;7657;50.140;7.076;2023-07-20T04:22:09;3.70;;;2.60;;
15112;SDS011;7657;50.140;7.076;2023-07-20T04:24:37;3.78;;;2.22;;
15112;SDS011;7657;50.140;7.076;2023-07-20T04:27:04;3.70;;;2.47;;
15112;SDS011;7657;50.140;7.076;2023-07-20T04:29:31;3.15;;;2.42;;
15112;SDS011;7657;50.140;7.076;2023-07-20T04:31:58;5.88;;;2.60;;
15112;SDS011;7657;50.140;7.076;2023-07-20T04:34:25;4.60;;;2.47;;
15112;SDS011;7657;50.140;7.076;2023-07-20T04:36:52;3.10;;;2.28;;
15112;SDS011;7657;50.140;7.076;2023-07-20T04:39:19;5.95;;;2.55;;
15112;SDS011;7657;50.140;7.076;2023-07-20T04:41:47;3.47;;;2.50;;
15112;SDS011;7657;50.140;7.076;2023-07-20T04:44:14;3.03;;;2.35;;
15112;SDS011;7657;50.140;7.076;2023-07-20T04:46:41;4.72;;;2.53;;
15112;SDS011;7657;50.140;7.076;2023-07-20T04:49:08;4.72;;;2.78;;
15112;SDS011;7657;50.140;7.076;2023-07-20T04:51:34;7.25;;;2.53;;
15112;SDS011;7657;50.140;7.076;2023-07-20T04:54:01;5.88;;;2.30;;
15112;SDS011;7657;50.140;7.076;2023-07-20T04:56:28;3.75;;;2.50;;
15112;SDS011;7657;50.140;7.076;2023-07-20T04:58:57;4.35;;;2.60;;
15112;SDS011;7657;50.140;7.076;2023-07-20T05:01:24;6.22;;;2.90;;
15112;SDS011;7657;50.140;7.076;2023-07-20T05:03:51;3.35;;;2.55;;
15112;SDS011;7657;50.140;7.076;2023-07-20T05:06:18;4.47;;;2.72;;
15112;SDS011;7657;50.140;7.076;2023-07-20T05:08:45;4.38;;;2.83;;
15112;SDS011;7657;50.140;7.076;2023-07-20T05:11:12;3.80;;;2.83;;
15112;SDS011;7657;50.140;7.076;2023-07-20T05:13:40;4.53;;;2.80;;
15112;SDS011;7657;50.140;7.076;2023-07-20T05:16:08;4.07;;;2.33;;
15112;SDS011;7657;50.140;7.076;2023-07-20T05:18:35;6.88;;;3.17;;
15112;SDS011;7657;50.140;7.076;2023-07-20T05:21:02;5.63;;;2.92;;
15112;SDS011;7657;50.140;7.076;2023-07-20T05:23:29;5.32;;;2.85;;
15112;SDS011;7657;50.140;7.076;2023-07-20T05:25:56;4.38;;;2.85;;
15112;SDS011;7657;50.140;7.076;2023-07-20T05:28:23;5.93;;;2.90;;
15112;SDS011;7657;50.140;7.076;2023-07-20T05:30:50;7.63;;;2.72;;
15112;SDS011;7657;50.140;7.076;2023-07-20T05:33:19;6.32;;;3.10;;
15112;SDS011;7657;50.140;7.076;2023-07-20T05:35:46;6.78;;;3.42;;
15112;SDS011;7657;50.140;7.076;2023-07-20T05:38:13;4.97;;;2.90;;
15112;SDS011;7657;50.140;7.076;2023-07-20T05:40:41;5.88;;;3.17;;
15112;SDS011;7657;50.140;7.076;2023-07-20T05:43:09;4.18;;;2.92;;
15112;SDS011;7657;50.140;7.076;2023-07-20T05:45:36;7.22;;;3.42;;
15112;SDS011;7657;50.140;7.076;2023-07-20T05:48:04;4.18;;;2.78;;
15112;SDS011;7657;50.140;7.076;2023-07-20T05:50:32;3.90;;;2.67;;
15112;SDS011;7657;50.140;7.076;2023-07-20T05:52:59;7.43;;;3.42;;
15112;SDS011;7657;50.140;7.076;2023-07-20T05:55:26;5.15;;;2.78;;
15112;SDS011;7657;50.140;7.076;2023-07-20T05:57:53;4.63;;;2.90;;
15112;SDS011;7657;50.140;7.076;2023-07-20T06:00:21;8.98;;;3.50;;
15112;SDS011;7657;50.140;7.076;2023-07-20T06:02:51;5.40;;;2.80;;
15112;SDS011;7657;50.140;7.076;2023-07-20T06:05:18;5.55;;;2.88;;
15112;SDS011;7657;50.140;7.076;2023-07-20T06:07:46;5.65;;;3.28;;
15112;SDS011;7657;50.140;7.076;2023-07-20T06:10:13;5.40;;;3.40;;
15112;SDS011;7657;50.140;7.076;2023-07-20T06:12:40;5.72;;;3.33;;
15112;SDS011;7657;50.140;7.076;2023-07-20T06:15:23;7.07;;;3.40;;
15112;SDS011;7657;50.140;7.076;2023-07-20T06:17:51;6.50;;;3.42;;
15112;SDS011;7657;50.140;7.076;2023-07-20T06:20:18;6.00;;;3.80;;
15112;SDS011;7657;50.140;7.076;2023-07-20T06:22:45;7.63;;;3.28;;
15112;SDS011;7657;50.140;7.076;2023-07-20T06:25:13;5.97;;;3.65;;
15112;SDS011;7657;50.140;7.076;2023-07-20T06:27:40;4.88;;;3.33;;
15112;SDS011;7657;50.140;7.076;2023-07-20T06:30:08;4.20;;;2.80;;
15112;SDS011;7657;50.140;7.076;2023-07-20T06:32:35;4.95;;;3.10;;
15112;SDS011;7657;50.140;7.076;2023-07-20T06:35:02;4.43;;;2.97;;
15112;SDS011;7657;50.140;7.076;2023-07-20T06:37:30;4.60;;;3.42;;
15112;SDS011;7657;50.140;7.076;2023-07-20T06:39:59;4.22;;;2.60;;
15112;SDS011;7657;50.140;7.076;2023-07-20T06:42:26;5.28;;;3.40;;
15112;SDS011;7657;50.140;7.076;2023-07-20T06:44:53;5.10;;;3.35;;
15112;SDS011;7657;50.140;7.076;2023-07-20T06:47:19;3.63;;;2.85;;
15112;SDS011;7657;50.140;7.076;2023-07-20T06:49:46;4.20;;;3.20;;
15112;SDS011;7657;50.140;7.076;2023-07-20T06:52:13;3.88;;;3.22;;
15112;SDS011;7657;50.140;7.076;2023-07-20T06:54:40;6.28;;;4.07;;
15112;SDS011;7657;50.140;7.076;2023-07-20T06:57:08;6.75;;;3.47;;
15112;SDS011;7657;50.140;7.076;2023-07-20T06:59:35;5.63;;;3.25;;
15112;SDS011;7657;50.140;7.076;2023-07-20T07:02:02;6.72;;;3.55;;
15112;SDS011;7657;50.140;7.076;2023-07-20T07:04:29;6.32;;;3.92;;
15112;SDS011;7657;50.140;7.076;2023-07-20T07:06:57;5.70;;;4.13;;
15112;SDS011;7657;50.140;7.076;2023-07-20T07:09:25;6.60;;;4.25;;
15112;SDS011;7657;50.140;7.076;2023-07-20T07:11:51;5.22;;;4.05;;
15112;SDS011;7657;50.140;7.076;2023-07-20T07:14:20;6.38;;;3.70;;
15112;SDS011;7657;50.140;7.076;2023-07-20T07:16:47;7.72;;;4.10;;
15112;SDS011;7657;50.140;7.076;2023-07-20T07:19:14;5.55;;;4.05;;
15112;SDS011;7657;50.140;7.076;2023-07-20T07:21:41;10.40;;;4.20;;
15112;SDS011;7657;50.140;7.076;2023-07-20T07:24:07;7.90;;;4.07;;
15112;SDS011;7657;50.140;7.076;2023-07-20T07:26:35;4.65;;;3.33;;
15112;SDS011;7657;50.140;7.076;2023-07-20T07:29:02;8.82;;;3.92;;
15112;SDS011;7657;50.140;7.076;2023-07-20T07:31:33;5.63;;;3.30;;
15112;SDS011;7657;50.140;7.076;2023-07-20T07:34:01;4.28;;;3.40;;
15112;SDS011;7657;50.140;7.076;2023-07-20T07:36:28;5.18;;;3.42;;
15112;SDS011;7657;50.140;7.076;2023-07-20T07:38:55;6.97;;;3.58;;
15112;SDS011;7657;50.140;7.076;2023-07-20T07:41:22;6.75;;;3.30;;
15112;SDS011;7657;50.140;7.076;2023-07-20T07:43:49;5.97;;;3.60;;
15112;SDS011;7657;50.140;7.076;2023-07-20T07:46:16;5.05;;;3.40;;
15112;SDS011;7657;50.140;7.076;2023-07-20T07:48:44;4.40;;;3.20;;
15112;SDS011;7657;50.140;7.076;2023-07-20T07:51:11;6.20;;;3.70;;
15112;SDS011;7657;50.140;7.076;2023-07-20T07:53:38;8.45;;;3.90;;
15112;SDS011;7657;50.140;7.076;2023-07-20T07:56:06;8.43;;;3.50;;
15112;SDS011;7657;50.140;7.076;2023-07-20T07:58:34;7.22;;;3.58;;
15112;SDS011;7657;50.140;7.076;2023-07-20T08:01:01;3.80;;;3.40;;
15112;SDS011;7657;50.140;7.076;2023-07-20T08:03:28;6.45;;;3.42;;
15112;SDS011;7657;50.140;7.076;2023-07-20T08:05:56;4.97;;;3.55;;
15112;SDS011;7657;50.140;7.076;2023-07-20T08:08:23;7.18;;;3.53;;
15112;SDS011;7657;50.140;7.076;2023-07-20T08:10:52;3.92;;;3.08;;
15112;SDS011;7657;50.140;7.076;2023-07-20T08:13:20;6.47;;;3.65;;
15112;SDS011;7657;50.140;7.076;2023-07-20T08:15:48;3.92;;;3.10;;
15112;SDS011;7657;50.140;7.076;2023-07-20T08:18:16;8.38;;;3.60;;
15112;SDS011;7657;50.140;7.076;2023-07-20T08:20:43;5.68;;;3.15;;
15112;SDS011;7657;50.140;7.076;2023-07-20T08:23:12;9.10;;;3.38;;
15112;SDS011;7657;50.140;7.076;2023-07-20T08:25:39;5.97;;;3.28;;
15112;SDS011;7657;50.140;7.076;2023-07-20T08:28:09;5.57;;;3.08;;
15112;SDS011;7657;50.140;7.076;2023-07-20T08:30:39;4.50;;;3.40;;
15112;SDS011;7657;50.140;7.076;2023-07-20T08:33:07;3.55;;;2.88;;
15112;SDS011;7657;50.140;7.076;2023-07-20T08:35:34;4.68;;;3.08;;
15112;SDS011;7657;50.140;7.076;2023-07-20T08:38:01;6.47;;;3.03;;
15112;SDS011;7657;50.140;7.076;2023-07-20T08:40:31;3.63;;;2.70;;
15112;SDS011;7657;50.140;7.076;2023-07-20T08:42:58;3.45;;;2.70;;
15112;SDS011;7657;50.140;7.076;2023-07-20T08:45:25;4.22;;;2.78;;
15112;SDS011;7657;50.140;7.076;2023-07-20T08:47:54;4.68;;;3.13;;
15112;SDS011;7657;50.140;7.076;2023-07-20T08:50:22;3.53;;;2.67;;
15112;SDS011;7657;50.140;7.076;2023-07-20T08:52:50;4.32;;;3.00;;
15112;SDS011;7657;50.140;7.076;2023-07-20T08:55:19;4.30;;;2.80;;
15112;SDS011;7657;50.140;7.076;2023-07-20T08:57:50;4.93;;;3.00;;
15112;SDS011;7657;50.140;7.076;2023-07-20T09:00:19;4.40;;;2.70;;
15112;SDS011;7657;50.140;7.076;2023-07-20T09:02:47;5.05;;;3.13;;
15112;SDS011;7657;50.140;7.076;2023-07-20T09:05:16;3.83;;;2.75;;
15112;SDS011;7657;50.140;7.076;2023-07-20T09:07:43;3.72;;;2.60;;
15112;SDS011;7657;50.140;7.076;2023-07-20T09:10:10;2.63;;;2.42;;
15112;SDS011;7657;50.140;7.076;2023-07-20T09:12:38;7.10;;;2.63;;
15112;SDS011;7657;50.140;7.076;2023-07-20T09:15:07;4.68;;;2.83;;
15112;SDS011;7657;50.140;7.076;2023-07-20T09:17:35;4.47;;;2.67;;
15112;SDS011;7657;50.140;7.076;2023-07-20T09:20:04;3.13;;;2.50;;
15112;SDS011;7657;50.140;7.076;2023-07-20T09:22:34;3.80;;;2.80;;
15112;SDS011;7657;50.140;7.076;2023-07-20T09:25:05;4.10;;;3.00;;
15112;SDS011;7657;50.140;7.076;2023-07-20T09:27:35;3.70;;;2.90;;
15112;SDS011;7657;50.140;7.076;2023-07-20T09:30:03;3.78;;;2.88;;
15112;SDS011;7657;50.140;7.076;2023-07-20T09:32:38;3.83;;;2.83;;
15112;SDS011;7657;50.140;7.076;2023-07-20T09:35:06;4.43;;;3.05;;
15112;SDS011;7657;50.140;7.076;2023-07-20T09:37:38;5.53;;;3.03;;
15112;SDS011;7657;50.140;7.076;2023-07-20T09:40:06;5.70;;;3.47;;
15112;SDS011;7657;50.140;7.076;2023-07-20T09:42:34;5.68;;;2.95;;
15112;SDS011;7657;50.140;7.076;2023-07-20T09:45:03;4.30;;;2.63;;
15112;SDS011;7657;50.140;7.076;2023-07-20T09:47:35;3.33;;;2.30;;
15112;SDS011;7657;50.140;7.076;2023-07-20T09:50:04;4.07;;;2.28;;
15112;SDS011;7657;50.140;7.076;2023-07-20T09:52:35;2.30;;;2.10;;
15112;SDS011;7657;50.140;7.076;2023-07-20T09:55:05;2.50;;;2.00;;
15112;SDS011;7657;50.140;7.076;2023-07-20T09:57:34;3.65;;;2.20;;
15112;SDS011;7657;50.140;7.076;2023-07-20T10:00:02;5.03;;;2.00;;
15112;SDS011;7657;50.140;7.076;2023-07-20T10:02:40;3.47;;;2.50;;
15112;SDS011;7657;50.140;7.076;2023-07-20T10:05:08;3.03;;;2.20;;
15112;SDS011;7657;50.140;7.076;2023-07-20T10:07:40;3.17;;;2.38;;
15112;SDS011;7657;50.140;7.076;2023-07-20T10:10:10;3.42;;;2.10;;
15112;SDS011;7657;50.140;7.076;2023-07-20T10:12:39;4.88;;;2.30;;
15112;SDS011;7657;50.140;7.076;2023-07-20T10:15:10;4.28;;;2.40;;
15112;SDS011;7657;50.140;7.076;2023-07-20T10:17:44;3.40;;;2.30;;
15112;SDS011;7657;50.140;7.076;2023-07-20T10:20:19;4.07;;;2.20;;
15112;SDS011;7657;50.140;7.076;2023-07-20T10:22:47;3.85;;;2.40;;
15112;SDS011;7657;50.140;7.076;2023-07-20T10:25:15;7.78;;;2.33;;
15112;SDS011;7657;50.140;7.076;2023-07-20T10:27:44;4.30;;;2.50;;
15112;SDS011;7657;50.140;7.076;2023-07-20T10:30:11;3.65;;;2.10;;
15112;SDS011;7657;50.140;7.076;2023-07-20T10:32:39;6.15;;;2.17;;
15112;SDS011;7657;50.140;7.076;2023-07-20T10:35:12;2.58;;;2.08;;
15112;SDS011;7657;50.140;7.076;2023-07-20T10:37:46;2.35;;;1.85;;
15112;SDS011;7657;50.140;7.076;2023-07-20T10:40:23;4.25;;;2.30;;
15112;SDS011;7657;50.140;7.076;2023-07-20T10:42:58;2.63;;;2.05;;
15112;SDS011;7657;50.140;7.076;2023-07-20T10:45:32;2.22;;;1.83;;
15112;SDS011;7657;50.140;7.076;2023-07-20T10:48:04;4.70;;;2.65;;
15112;SDS011;7657;50.140;7.076;2023-07-20T10:50:32;4.88;;;2.00;;
15112;SDS011;7657;50.140;7.076;2023-07-20T10:53:10;3.55;;;2.20;;
15112;SDS011;7657;50.140;7.076;2023-07-20T10:55:37;2.55;;;2.15;;
15112;SDS011;7657;50.140;7.076;2023-07-20T10:58:08;4.43;;;2.40;;
15112;SDS011;7657;50.140;7.076;2023-07-20T11:00:36;3.13;;;1.80;;
15112;SDS011;7657;50.140;7.076;2023-07-20T11:03:05;3.38;;;2.30;;
15112;SDS011;7657;50.140;7.076;2023-07-20T11:05:36;3.13;;;2.33;;
15112;SDS011;7657;50.140;7.076;2023-07-20T11:08:05;3.97;;;2.10;;
15112;SDS011;7657;50.140;7.076;2023-07-20T11:10:35;2.75;;;1.90;;
15112;SDS011;7657;50.140;7.076;2023-07-20T11:13:21;3.13;;;2.28;;
15112;SDS011;7657;50.140;7.076;2023-07-20T11:16:03;2.92;;;2.00;;
15112;SDS011;7657;50.140;7.076;2023-07-20T11:18:34;3.75;;;2.10;;
15112;SDS011;7657;50.140;7.076;2023-07-20T11:21:06;2.38;;;1.95;;
15112;SDS011;7657;50.140;7.076;2023-07-20T11:23:37;1.70;;;1.60;;
15112;SDS011;7657;50.140;7.076;2023-07-20T11:26:05;6.97;;;6.38;;
15112;SDS011;7657;50.140;7.076;2023-07-20T11:28:33;5.10;;;2.42;;
15112;SDS011;7657;50.140;7.076;2023-07-20T11:31:00;2.88;;;2.03;;
15112;SDS011;7657;50.140;7.076;2023-07-20T11:33:27;2.47;;;1.75;;
15112;SDS011;7657;50.140;7.076;2023-07-20T11:35:55;2.03;;;1.80;;
15112;SDS011;7657;50.140;7.076;2023-07-20T11:38:23;2.70;;;1.85;;
15112;SDS011;7657;50.140;7.076;2023-07-20T11:40:50;1.67;;;1.58;;
15112;SDS011;7657;50.140;7.076;2023-07-20T11:43:17;2.97;;;1.60;;
15112;SDS011;7657;50.140;7.076;2023-07-20T11:45:46;3.50;;;1.73;;
15112;SDS011;7657;50.140;7.076;2023-07-20T11:48:14;4.28;;;2.08;;
15112;SDS011;7657;50.140;7.076;2023-07-20T11:50:41;1.95;;;1.25;;
15112;SDS011;7657;50.140;7.076;2023-07-20T11:53:09;1.70;;;1.60;;
15112;SDS011;7657;50.140;7.076;2023-07-20T11:55:37;2.85;;;1.85;;
15112;SDS011;7657;50.140;7.076;2023-07-20T11:58:06;2.85;;;1.80;;
15112;SDS011;7657;50.140;7.076;2023-07-20T12:00:34;2.30;;;1.65;;
15112;SDS011;7657;50.140;7.076;2023-07-20T12:03:04;4.07;;;2.22;;
15112;SDS011;7657;50.140;7.076;2023-07-20T12:05:32;2.88;;;1.60;;
15112;SDS011;7657;50.140;7.076;2023-07-20T12:08:00;4.50;;;1.90;;
15112;SDS011;7657;50.140;7.076;2023-07-20T12:10:28;3.08;;;1.88;;
15112;SDS011;7657;50.140;7.076;2023-07-20T12:13:00;3.03;;;1.50;;
15112;SDS011;7657;50.140;7.076;2023-07-20T12:15:28;2.00;;;1.60;;
15112;SDS011;7657;50.140;7.076;2023-07-20T12:17:57;2.72;;;1.70;;
15112;SDS011;7657;50.140;7.076;2023-07-20T12:20:26;1.67;;;1.58;;
15112;SDS011;7657;50.140;7.076;2023-07-20T12:22:55;2.08;;;1.55;;
15112;SDS011;7657;50.140;7.076;2023-07-20T12:25:33;2.30;;;1.58;;
15112;SDS011;7657;50.140;7.076;2023-07-20T12:28:04;4.28;;;1.77;;
15112;SDS011;7657;50.140;7.076;2023-07-20T12:30:31;1.90;;;1.42;;
15112;SDS011;7657;50.140;7.076;2023-07-20T12:32:58;2.80;;;1.75;;
15112;SDS011;7657;50.140;7.076;2023-07-20T12:35:25;1.52;;;1.42;;
15112;SDS011;7657;50.140;7.076;2023-07-20T12:37:52;1.40;;;1.30;;
15112;SDS011;7657;50.140;7.076;2023-07-20T12:40:20;2.65;;;1.50;;
15112;SDS011;7657;50.140;7.076;2023-07-20T12:42:48;1.67;;;1.55;;
15112;SDS011;7657;50.140;7.076;2023-07-20T12:45:15;3.15;;;1.60;;
15112;SDS011;7657;50.140;7.076;2023-07-20T12:47:42;1.50;;;1.40;;
15112;SDS011;7657;50.140;7.076;2023-07-20T12:50:09;3.20;;;1.75;;
15112;SDS011;7657;50.140;7.076;2023-07-20T12:52:36;1.73;;;1.45;;
15112;SDS011;7657;50.140;7.076;2023-07-20T12:55:04;2.60;;;1.33;;
15112;SDS011;7657;50.140;7.076;2023-07-20T12:57:32;2.50;;;1.30;;
15112;SDS011;7657;50.140;7.076;2023-07-20T13:00:01;2.65;;;1.35;;
15112;SDS011;7657;50.140;7.076;2023-07-20T13:02:29;1.58;;;1.48;;
15112;SDS011;7657;50.140;7.076;2023-07-20T13:04:57;1.67;;;1.40;;
15112;SDS011;7657;50.140;7.076;2023-07-20T13:07:29;2.72;;;1.50;;
15112;SDS011;7657;50.140;7.076;2023-07-20T13:09:57;1.23;;;1.13;;
15112;SDS011;7657;50.140;7.076;2023-07-20T13:12:25;4.85;;;1.30;;
15112;SDS011;7657;50.140;7.076;2023-07-20T13:14:52;1.60;;;1.50;;
15112;SDS011;7657;50.140;7.076;2023-07-20T13:17:22;1.60;;;1.40;;
15112;SDS011;7657;50.140;7.076;2023-07-20T13:19:48;2.25;;;1.20;;
15112;SDS011;7657;50.140;7.076;2023-07-20T13:22:17;2.40;;;1.45;;
15112;SDS011;7657;50.140;7.076;2023-07-20T13:24:44;1.50;;;1.40;;
15112;SDS011;7657;50.140;7.076;2023-07-20T13:27:14;1.75;;;1.38;;
15112;SDS011;7657;50.140;7.076;2023-07-20T13:29:41;2.55;;;1.30;;
15112;SDS011;7657;50.140;7.076;2023-07-20T13:32:08;1.52;;;1.42;;
15112;SDS011;7657;50.140;7.076;2023-07-20T13:34:37;1.55;;;1.20;;
15112;SDS011;7657;50.140;7.076;2023-07-20T13:37:04;2.38;;;1.40;;
15112;SDS011;7657;50.140;7.076;2023-07-20T13:39:31;2.40;;;1.60;;
15112;SDS011;7657;50.140;7.076;2023-07-20T13:41:58;1.48;;;1.20;;
15112;SDS011;7657;50.140;7.076;2023-07-20T13:44:26;1.55;;;1.40;;
15112;SDS011;7657;50.140;7.076;2023-07-20T13:46:53;2.17;;;1.50;;
15112;SDS011;7657;50.140;7.076;2023-07-20T13:49:20;1.10;;;1.10;;
15112;SDS011;7657;50.140;7.076;2023-07-20T13:51:48;1.45;;;1.30;;
15112;SDS011;7657;50.140;7.076;2023-07-20T13:54:15;1.63;;;1.38;;
15112;SDS011;7657;50.140;7.076;2023-07-20T13:56:42;1.20;;;1.20;;
15112;SDS011;7657;50.140;7.076;2023-07-20T13:59:09;1.70;;;1.48;;
15112;SDS011;7657;50.140;7.076;2023-07-20T14:01:36;2.33;;;1.30;;
15112;SDS011;7657;50.140;7.076;2023-07-20T14:04:03;2.13;;;1.52;;
15112;SDS011;7657;50.140;7.076;2023-07-20T14:06:30;1.88;;;1.63;;
15112;SDS011;7657;50.140;7.076;2023-07-20T14:08:59;2.45;;;1.75;;
15112;SDS011;7657;50.140;7.076;2023-07-20T14:11:26;1.40;;;1.27;;
15112;SDS011;7657;50.140;7.076;2023-07-20T14:13:52;1.42;;;1.23;;
15112;SDS011;7657;50.140;7.076;2023-07-20T14:16:20;2.65;;;1.50;;
15112;SDS011;7657;50.140;7.076;2023-07-20T14:18:47;1.33;;;1.20;;
15112;SDS011;7657;50.140;7.076;2023-07-20T14:21:14;1.92;;;1.70;;
15112;SDS011;7657;50.140;7.076;2023-07-20T14:23:41;1.95;;;1.40;;
15112;SDS011;7657;50.140;7.076;2023-07-20T14:26:12;1.27;;;1.17;;
15112;SDS011;7657;50.140;7.076;2023-07-20T14:28:39;3.35;;;1.48;;
15112;SDS011;7657;50.140;7.076;2023-07-20T14:31:06;15.82;;;3.10;;
15112;SDS011;7657;50.140;7.076;2023-07-20T14:33:33;10.05;;;2.85;;
15112;SDS011;7657;50.140;7.076;2023-07-20T14:36:00;8.55;;;2.05;;
15112;SDS011;7657;50.140;7.076;2023-07-20T14:38:27;12.38;;;2.60;;
15112;SDS011;7657;50.140;7.076;2023-07-20T14:40:54;3.78;;;1.70;;
15112;SDS011;7657;50.140;7.076;2023-07-20T14:43:22;2.72;;;1.40;;
15112;SDS011;7657;50.140;7.076;2023-07-20T14:45:49;1.83;;;1.40;;
15112;SDS011;7657;50.140;7.076;2023-07-20T14:48:16;2.00;;;1.15;;
15112;SDS011;7657;50.140;7.076;2023-07-20T14:50:43;1.77;;;1.50;;
15112;SDS011;7657;50.140;7.076;2023-07-20T14:53:12;1.15;;;1.13;;
15112;SDS011;7657;50.140;7.076;2023-07-20T14:55:39;1.08;;;0.85;;
15112;SDS011;7657;50.140;7.076;2023-07-20T14:58:06;1.50;;;1.40;;
15112;SDS011;7657;50.140;7.076;2023-07-20T15:00:35;1.52;;;1.17;;
15112;SDS011;7657;50.140;7.076;2023-07-20T15:03:02;1.30;;;1.20;;
15112;SDS011;7657;50.140;7.076;2023-07-20T15:05:30;1.77;;;1.30;;